sensor_id;sensor_type;location;lat;lon;timestamp;P1;durP1;ratioP1;P2;durP2;ratioP2
26478;SDS011;14163;-26.142;27.992;2022-10-17T00:02:05;9.20;;;8.33;;
26478;SDS011;14163;-26.142;27.992;2022-10-17T00:04:35;10.53;;;9.53;;
26478;SDS011;14163;-26.142;27.992;2022-10-17T00:07:07;13.83;;;9.00;;
26478;SDS011;14163;-26.142;27.992;2022-10-17T00:09:37;11.40;;;9.10;;
26478;SDS011;14163;-26.142;27.992;2022-10-17T00:12:09;8.70;;;7.90;;
26478;SDS011;14163;-26.142;27.992;2022-10-17T00:14:39;12.70;;;8.80;;
26478;SDS011;14163;-26.142;27.992;2022-10-17T00:17:10;8.90;;;8.07;;
26478;SDS011;14163;-26.142;27.992;2022-10-17T00:19:40;10.03;;;9.13;;
26478;SDS011;14163;-26.142;27.992;2022-10-17T00:22:12;13.83;;;9.77;;
26478;SDS011;14163;-26.142;27.992;2022-10-17T00:24:42;11.97;;;10.13;;
26478;SDS011;14163;-26.142;27.992;2022-10-17T00:27:12;9.50;;;8.50;;
26478;SDS011;14163;-26.142;27.992;2022-10-17T00:29:42;11.57;;;9.40;;
26478;SDS011;14163;-26.142;27.992;2022-10-17T00:32:16;10.80;;;8.97;;
26478;SDS011;14163;-26.142;27.992;2022-10-17T00:34:47;11.10;;;8.80;;
26478;SDS011;14163;-26.142;27.992;2022-10-17T00:37:20;8.50;;;7.70;;
26478;SDS011;14163;-26.142;27.992;2022-10-17T00:39:51;10.50;;;9.07;;
26478;SDS011;14163;-26.142;27.992;2022-10-17T00:42:21;11.90;;;9.53;;
26478;SDS011;14163;-26.142;27.992;2022-10-17T00:44:57;10.60;;;9.53;;
26478;SDS011;14163;-26.142;27.992;2022-10-17T00:47:29;10.13;;;9.03;;
26478;SDS011;14163;-26.142;27.992;2022-10-17T00:50:00;9.33;;;8.53;;
26478;SDS011;14163;-26.142;27.992;2022-10-17T00:52:34;10.53;;;9.43;;
26478;SDS011;14163;-26.142;27.992;2022-10-17T00:55:06;12.43;;;9.17;;
26478;SDS011;14163;-26.142;27.992;2022-10-17T00:57:40;13.07;;;9.00;;
26478;SDS011;14163;-26.142;27.992;2022-10-17T01:00:12;10.00;;;8.70;;
26478;SDS011;14163;-26.142;27.992;2022-10-17T01:02:42;14.43;;;9.97;;
26478;SDS011;14163;-26.142;27.992;2022-10-17T01:05:13;10.30;;;9.20;;
26478;SDS011;14163;-26.142;27.992;2022-10-17T01:07:45;10.23;;;9.20;;
26478;SDS011;14163;-26.142;27.992;2022-10-17T01:10:16;10.70;;;8.40;;
26478;SDS011;14163;-26.142;27.992;2022-10-17T01:12:51;9.60;;;8.60;;
26478;SDS011;14163;-26.142;27.992;2022-10-17T01:15:30;10.53;;;9.00;;
26478;SDS011;14163;-26.142;27.992;2022-10-17T01:18:12;10.27;;;8.50;;
26478;SDS011;14163;-26.142;27.992;2022-10-17T01:27:39;9.40;;;8.53;;
26478;SDS011;14163;-26.142;27.992;2022-10-17T01:33:29;13.97;;;9.17;;
26478;SDS011;14163;-26.142;27.992;2022-10-17T01:36:06;9.40;;;8.30;;
26478;SDS011;14163;-26.142;27.992;2022-10-17T01:38:43;9.27;;;8.30;;
26478;SDS011;14163;-26.142;27.992;2022-10-17T01:41:16;9.67;;;8.70;;
26478;SDS011;14163;-26.142;27.992;2022-10-17T01:43:56;17.90;;;9.00;;
26478;SDS011;14163;-26.142;27.992;2022-10-17T01:46:33;11.50;;;8.00;;
26478;SDS011;14163;-26.142;27.992;2022-10-17T01:49:05;9.77;;;8.07;;
26478;SDS011;14163;-26.142;27.992;2022-10-17T01:51:38;12.20;;;8.00;;
26478;SDS011;14163;-26.142;27.992;2022-10-17T01:54:13;9.83;;;7.50;;
26478;SDS011;14163;-26.142;27.992;2022-10-17T01:56:47;12.43;;;8.70;;
26478;SDS011;14163;-26.142;27.992;2022-10-17T01:59:21;9.33;;;8.30;;
26478;SDS011;14163;-26.142;27.992;2022-10-17T02:01:57;11.20;;;8.07;;
26478;SDS011;14163;-26.142;27.992;2022-10-17T02:04:28;10.60;;;8.63;;
26478;SDS011;14163;-26.142;27.992;2022-10-17T02:07:04;10.67;;;8.47;;
26478;SDS011;14163;-26.142;27.992;2022-10-17T02:09:35;8.80;;;7.90;;
26478;SDS011;14163;-26.142;27.992;2022-10-17T02:12:25;13.17;;;8.10;;
26478;SDS011;14163;-26.142;27.992;2022-10-17T02:15:05;12.77;;;8.17;;
26478;SDS011;14163;-26.142;27.992;2022-10-17T02:17:50;10.73;;;7.23;;
26478;SDS011;14163;-26.142;27.992;2022-10-17T02:20:26;13.60;;;8.53;;
26478;SDS011;14163;-26.142;27.992;2022-10-17T02:23:06;9.37;;;7.73;;
26478;SDS011;14163;-26.142;27.992;2022-10-17T02:25:40;18.17;;;8.90;;
26478;SDS011;14163;-26.142;27.992;2022-10-17T02:28:18;9.13;;;8.00;;
26478;SDS011;14163;-26.142;27.992;2022-10-17T02:30:52;11.70;;;8.63;;
26478;SDS011;14163;-26.142;27.992;2022-10-17T02:33:30;9.97;;;7.70;;
26478;SDS011;14163;-26.142;27.992;2022-10-17T02:36:05;11.30;;;8.90;;
26478;SDS011;14163;-26.142;27.992;2022-10-17T02:38:39;12.10;;;8.40;;
26478;SDS011;14163;-26.142;27.992;2022-10-17T02:41:12;12.27;;;8.70;;
26478;SDS011;14163;-26.142;27.992;2022-10-17T02:43:45;13.03;;;8.40;;
26478;SDS011;14163;-26.142;27.992;2022-10-17T02:46:17;10.63;;;7.93;;
26478;SDS011;14163;-26.142;27.992;2022-10-17T02:48:51;11.87;;;8.80;;
26478;SDS011;14163;-26.142;27.992;2022-10-17T02:51:27;9.90;;;8.80;;
26478;SDS011;14163;-26.142;27.992;2022-10-17T02:54:03;15.60;;;8.80;;
26478;SDS011;14163;-26.142;27.992;2022-10-17T02:56:38;12.70;;;8.87;;
26478;SDS011;14163;-26.142;27.992;2022-10-17T02:59:11;10.03;;;8.10;;
26478;SDS011;14163;-26.142;27.992;2022-10-17T03:01:44;12.60;;;8.63;;
26478;SDS011;14163;-26.142;27.992;2022-10-17T03:04:18;12.40;;;8.73;;
26478;SDS011;14163;-26.142;27.992;2022-10-17T03:06:48;13.17;;;9.33;;
26478;SDS011;14163;-26.142;27.992;2022-10-17T03:09:18;10.50;;;9.40;;
26478;SDS011;14163;-26.142;27.992;2022-10-17T03:11:48;10.83;;;8.43;;
26478;SDS011;14163;-26.142;27.992;2022-10-17T03:14:18;10.00;;;8.40;;
26478;SDS011;14163;-26.142;27.992;2022-10-17T03:16:48;14.17;;;8.63;;
26478;SDS011;14163;-26.142;27.992;2022-10-17T03:19:20;13.97;;;9.67;;
26478;SDS011;14163;-26.142;27.992;2022-10-17T03:21:50;10.03;;;8.47;;
26478;SDS011;14163;-26.142;27.992;2022-10-17T03:24:21;13.23;;;9.40;;
26478;SDS011;14163;-26.142;27.992;2022-10-17T03:26:51;14.67;;;8.97;;
26478;SDS011;14163;-26.142;27.992;2022-10-17T03:29:21;13.83;;;8.83;;
26478;SDS011;14163;-26.142;27.992;2022-10-17T03:31:51;9.10;;;7.83;;
26478;SDS011;14163;-26.142;27.992;2022-10-17T03:34:23;16.07;;;8.70;;
26478;SDS011;14163;-26.142;27.992;2022-10-17T03:36:53;12.50;;;8.10;;
26478;SDS011;14163;-26.142;27.992;2022-10-17T03:39:23;15.07;;;8.90;;
26478;SDS011;14163;-26.142;27.992;2022-10-17T03:41:53;12.13;;;8.90;;
26478;SDS011;14163;-26.142;27.992;2022-10-17T03:44:22;12.33;;;8.63;;
26478;SDS011;14163;-26.142;27.992;2022-10-17T03:46:52;19.83;;;9.60;;
26478;SDS011;14163;-26.142;27.992;2022-10-17T03:49:23;11.63;;;9.20;;
26478;SDS011;14163;-26.142;27.992;2022-10-17T03:51:52;12.00;;;7.87;;
26478;SDS011;14163;-26.142;27.992;2022-10-17T03:54:22;9.67;;;7.80;;
26478;SDS011;14163;-26.142;27.992;2022-10-17T03:56:51;10.77;;;9.17;;
26478;SDS011;14163;-26.142;27.992;2022-10-17T03:59:20;12.00;;;8.50;;
26478;SDS011;14163;-26.142;27.992;2022-10-17T04:01:49;9.33;;;8.30;;
26478;SDS011;14163;-26.142;27.992;2022-10-17T04:04:18;12.30;;;8.67;;
26478;SDS011;14163;-26.142;27.992;2022-10-17T04:06:50;12.73;;;9.67;;
26478;SDS011;14163;-26.142;27.992;2022-10-17T04:09:20;9.17;;;7.13;;
26478;SDS011;14163;-26.142;27.992;2022-10-17T04:11:50;12.77;;;8.73;;
26478;SDS011;14163;-26.142;27.992;2022-10-17T04:14:19;12.30;;;8.60;;
26478;SDS011;14163;-26.142;27.992;2022-10-17T04:16:48;13.20;;;9.23;;
26478;SDS011;14163;-26.142;27.992;2022-10-17T04:19:18;11.97;;;8.93;;
26478;SDS011;14163;-26.142;27.992;2022-10-17T04:21:47;10.70;;;8.80;;
26478;SDS011;14163;-26.142;27.992;2022-10-17T04:24:18;12.33;;;8.87;;
26478;SDS011;14163;-26.142;27.992;2022-10-17T04:26:48;11.07;;;9.03;;
26478;SDS011;14163;-26.142;27.992;2022-10-17T04:29:18;19.43;;;8.00;;
26478;SDS011;14163;-26.142;27.992;2022-10-17T04:31:48;13.37;;;8.40;;
26478;SDS011;14163;-26.142;27.992;2022-10-17T04:34:17;10.47;;;7.63;;
26478;SDS011;14163;-26.142;27.992;2022-10-17T04:36:47;13.20;;;9.17;;
26478;SDS011;14163;-26.142;27.992;2022-10-17T04:39:18;9.60;;;8.33;;
26478;SDS011;14163;-26.142;27.992;2022-10-17T04:41:48;10.93;;;7.60;;
26478;SDS011;14163;-26.142;27.992;2022-10-17T04:44:17;12.67;;;8.10;;
26478;SDS011;14163;-26.142;27.992;2022-10-17T04:46:47;12.73;;;8.47;;
26478;SDS011;14163;-26.142;27.992;2022-10-17T04:49:17;11.90;;;8.57;;
26478;SDS011;14163;-26.142;27.992;2022-10-17T04:51:47;9.57;;;8.70;;
26478;SDS011;14163;-26.142;27.992;2022-10-17T04:54:19;11.17;;;8.10;;
26478;SDS011;14163;-26.142;27.992;2022-10-17T04:56:48;12.80;;;8.27;;
26478;SDS011;14163;-26.142;27.992;2022-10-17T04:59:18;11.60;;;8.77;;
26478;SDS011;14163;-26.142;27.992;2022-10-17T05:01:47;9.93;;;8.13;;
26478;SDS011;14163;-26.142;27.992;2022-10-17T05:04:17;13.07;;;8.10;;
26478;SDS011;14163;-26.142;27.992;2022-10-17T05:06:46;11.10;;;8.53;;
26478;SDS011;14163;-26.142;27.992;2022-10-17T05:09:15;14.50;;;9.17;;
26478;SDS011;14163;-26.142;27.992;2022-10-17T05:11:46;10.53;;;8.00;;
26478;SDS011;14163;-26.142;27.992;2022-10-17T05:14:15;8.90;;;7.80;;
26478;SDS011;14163;-26.142;27.992;2022-10-17T05:16:44;12.90;;;9.50;;
26478;SDS011;14163;-26.142;27.992;2022-10-17T05:19:14;8.80;;;7.67;;
26478;SDS011;14163;-26.142;27.992;2022-10-17T05:21:43;9.73;;;8.73;;
26478;SDS011;14163;-26.142;27.992;2022-10-17T05:24:13;8.90;;;7.83;;
26478;SDS011;14163;-26.142;27.992;2022-10-17T05:26:42;12.90;;;9.20;;
26478;SDS011;14163;-26.142;27.992;2022-10-17T05:29:13;11.50;;;9.53;;
26478;SDS011;14163;-26.142;27.992;2022-10-17T05:31:43;15.50;;;10.10;;
26478;SDS011;14163;-26.142;27.992;2022-10-17T05:34:12;9.40;;;8.43;;
26478;SDS011;14163;-26.142;27.992;2022-10-17T05:36:41;8.50;;;7.70;;
26478;SDS011;14163;-26.142;27.992;2022-10-17T05:39:11;10.07;;;7.80;;
26478;SDS011;14163;-26.142;27.992;2022-10-17T05:41:44;12.50;;;9.27;;
26478;SDS011;14163;-26.142;27.992;2022-10-17T05:44:18;19.63;;;8.70;;
26478;SDS011;14163;-26.142;27.992;2022-10-17T05:46:47;9.67;;;8.20;;
26478;SDS011;14163;-26.142;27.992;2022-10-17T05:49:17;9.93;;;8.80;;
26478;SDS011;14163;-26.142;27.992;2022-10-17T05:51:46;16.03;;;8.93;;
26478;SDS011;14163;-26.142;27.992;2022-10-17T05:54:16;16.93;;;8.80;;
26478;SDS011;14163;-26.142;27.992;2022-10-17T05:56:49;9.60;;;8.60;;
26478;SDS011;14163;-26.142;27.992;2022-10-17T05:59:23;10.23;;;9.07;;
26478;SDS011;14163;-26.142;27.992;2022-10-17T06:01:53;15.33;;;9.27;;
26478;SDS011;14163;-26.142;27.992;2022-10-17T06:04:22;9.70;;;8.70;;
26478;SDS011;14163;-26.142;27.992;2022-10-17T06:06:52;14.50;;;9.10;;
26478;SDS011;14163;-26.142;27.992;2022-10-17T06:09:22;20.83;;;9.97;;
26478;SDS011;14163;-26.142;27.992;2022-10-17T06:11:52;9.63;;;8.73;;
26478;SDS011;14163;-26.142;27.992;2022-10-17T06:14:24;13.03;;;9.13;;
26478;SDS011;14163;-26.142;27.992;2022-10-17T06:16:53;9.73;;;8.70;;
26478;SDS011;14163;-26.142;27.992;2022-10-17T06:19:22;14.00;;;9.00;;
26478;SDS011;14163;-26.142;27.992;2022-10-17T06:21:52;13.17;;;8.40;;
26478;SDS011;14163;-26.142;27.992;2022-10-17T06:24:22;13.63;;;9.10;;
26478;SDS011;14163;-26.142;27.992;2022-10-17T06:26:52;12.90;;;8.80;;
26478;SDS011;14163;-26.142;27.992;2022-10-17T06:29:24;10.27;;;8.70;;
26478;SDS011;14163;-26.142;27.992;2022-10-17T06:31:54;12.57;;;8.90;;
26478;SDS011;14163;-26.142;27.992;2022-10-17T06:34:24;10.93;;;9.50;;
26478;SDS011;14163;-26.142;27.992;2022-10-17T06:36:54;11.80;;;9.00;;
26478;SDS011;14163;-26.142;27.992;2022-10-17T06:39:23;10.90;;;8.97;;
26478;SDS011;14163;-26.142;27.992;2022-10-17T06:41:58;11.37;;;9.73;;
26478;SDS011;14163;-26.142;27.992;2022-10-17T06:44:30;10.20;;;9.20;;
26478;SDS011;14163;-26.142;27.992;2022-10-17T06:47:00;10.83;;;9.20;;
26478;SDS011;14163;-26.142;27.992;2022-10-17T06:49:30;11.00;;;9.90;;
26478;SDS011;14163;-26.142;27.992;2022-10-17T06:52:00;10.10;;;9.20;;
26478;SDS011;14163;-26.142;27.992;2022-10-17T06:54:30;11.93;;;10.50;;
26478;SDS011;14163;-26.142;27.992;2022-10-17T06:56:59;10.90;;;9.77;;
26478;SDS011;14163;-26.142;27.992;2022-10-17T06:59:31;10.97;;;9.23;;
26478;SDS011;14163;-26.142;27.992;2022-10-17T07:02:00;11.23;;;9.90;;
26478;SDS011;14163;-26.142;27.992;2022-10-17T07:04:30;13.20;;;11.60;;
26478;SDS011;14163;-26.142;27.992;2022-10-17T07:06:59;12.97;;;11.57;;
26478;SDS011;14163;-26.142;27.992;2022-10-17T07:09:29;13.17;;;11.80;;
26478;SDS011;14163;-26.142;27.992;2022-10-17T07:11:58;13.90;;;10.83;;
26478;SDS011;14163;-26.142;27.992;2022-10-17T07:14:30;12.50;;;11.17;;
26478;SDS011;14163;-26.142;27.992;2022-10-17T07:17:00;12.80;;;11.20;;
26478;SDS011;14163;-26.142;27.992;2022-10-17T07:19:29;50.30;;;15.90;;
26478;SDS011;14163;-26.142;27.992;2022-10-17T07:21:59;14.00;;;12.50;;
26478;SDS011;14163;-26.142;27.992;2022-10-17T07:24:28;15.90;;;11.90;;
26478;SDS011;14163;-26.142;27.992;2022-10-17T07:26:58;17.50;;;12.23;;
26478;SDS011;14163;-26.142;27.992;2022-10-17T07:29:27;14.37;;;12.87;;
26478;SDS011;14163;-26.142;27.992;2022-10-17T07:31:59;15.70;;;12.73;;
26478;SDS011;14163;-26.142;27.992;2022-10-17T07:34:31;19.07;;;13.50;;
26478;SDS011;14163;-26.142;27.992;2022-10-17T07:37:02;16.40;;;14.57;;
26478;SDS011;14163;-26.142;27.992;2022-10-17T07:39:32;15.93;;;14.20;;
26478;SDS011;14163;-26.142;27.992;2022-10-17T07:42:04;17.80;;;15.03;;
26478;SDS011;14163;-26.142;27.992;2022-10-17T07:44:37;17.03;;;15.40;;
26478;SDS011;14163;-26.142;27.992;2022-10-17T07:47:06;16.37;;;14.87;;
26478;SDS011;14163;-26.142;27.992;2022-10-17T07:49:36;16.50;;;14.90;;
26478;SDS011;14163;-26.142;27.992;2022-10-17T07:52:09;17.50;;;15.33;;
26478;SDS011;14163;-26.142;27.992;2022-10-17T07:54:39;17.00;;;15.30;;
26478;SDS011;14163;-26.142;27.992;2022-10-17T07:57:09;16.30;;;14.80;;
26478;SDS011;14163;-26.142;27.992;2022-10-17T07:59:42;19.27;;;15.97;;
26478;SDS011;14163;-26.142;27.992;2022-10-17T08:02:13;18.90;;;16.60;;
26478;SDS011;14163;-26.142;27.992;2022-10-17T08:04:49;16.67;;;14.87;;
26478;SDS011;14163;-26.142;27.992;2022-10-17T08:07:19;17.13;;;15.33;;
26478;SDS011;14163;-26.142;27.992;2022-10-17T08:09:49;18.30;;;16.47;;
26478;SDS011;14163;-26.142;27.992;2022-10-17T08:12:19;17.33;;;15.73;;
26478;SDS011;14163;-26.142;27.992;2022-10-17T08:14:52;17.83;;;16.23;;
26478;SDS011;14163;-26.142;27.992;2022-10-17T08:17:21;17.20;;;15.60;;
26478;SDS011;14163;-26.142;27.992;2022-10-17T08:19:51;21.93;;;18.40;;
26478;SDS011;14163;-26.142;27.992;2022-10-17T08:22:21;20.97;;;16.83;;
26478;SDS011;14163;-26.142;27.992;2022-10-17T08:24:51;18.70;;;16.53;;
26478;SDS011;14163;-26.142;27.992;2022-10-17T08:27:21;19.47;;;17.40;;
26478;SDS011;14163;-26.142;27.992;2022-10-17T08:29:55;20.00;;;17.40;;
26478;SDS011;14163;-26.142;27.992;2022-10-17T08:32:25;20.00;;;18.00;;
26478;SDS011;14163;-26.142;27.992;2022-10-17T08:34:56;20.27;;;18.03;;
26478;SDS011;14163;-26.142;27.992;2022-10-17T08:37:29;19.97;;;17.63;;
26478;SDS011;14163;-26.142;27.992;2022-10-17T08:39:59;21.07;;;18.70;;
26478;SDS011;14163;-26.142;27.992;2022-10-17T08:42:32;20.13;;;18.23;;
26478;SDS011;14163;-26.142;27.992;2022-10-17T08:45:17;18.83;;;16.83;;
26478;SDS011;14163;-26.142;27.992;2022-10-17T08:47:54;19.30;;;17.30;;
26478;SDS011;14163;-26.142;27.992;2022-10-17T08:50:29;20.23;;;16.87;;
26478;SDS011;14163;-26.142;27.992;2022-10-17T08:53:04;22.73;;;17.30;;
26478;SDS011;14163;-26.142;27.992;2022-10-17T08:55:43;19.23;;;16.10;;
26478;SDS011;14163;-26.142;27.992;2022-10-17T08:58:17;17.60;;;15.83;;
26478;SDS011;14163;-26.142;27.992;2022-10-17T09:00:55;20.77;;;18.47;;
26478;SDS011;14163;-26.142;27.992;2022-10-17T09:03:33;17.87;;;15.30;;
26478;SDS011;14163;-26.142;27.992;2022-10-17T09:06:17;20.23;;;16.50;;
26478;SDS011;14163;-26.142;27.992;2022-10-17T09:08:58;28.13;;;16.47;;
26478;SDS011;14163;-26.142;27.992;2022-10-17T09:14:43;15.90;;;14.23;;
26478;SDS011;14163;-26.142;27.992;2022-10-17T09:17:26;17.43;;;14.67;;
26478;SDS011;14163;-26.142;27.992;2022-10-17T09:20:05;15.53;;;13.93;;
26478;SDS011;14163;-26.142;27.992;2022-10-17T09:22:40;16.27;;;14.57;;
26478;SDS011;14163;-26.142;27.992;2022-10-17T09:25:15;18.27;;;14.30;;
26478;SDS011;14163;-26.142;27.992;2022-10-17T09:27:47;16.93;;;15.23;;
26478;SDS011;14163;-26.142;27.992;2022-10-17T09:30:22;25.47;;;15.73;;
26478;SDS011;14163;-26.142;27.992;2022-10-17T09:33:00;18.00;;;14.07;;
26478;SDS011;14163;-26.142;27.992;2022-10-17T09:35:36;16.77;;;14.40;;
26478;SDS011;14163;-26.142;27.992;2022-10-17T09:38:08;20.20;;;15.00;;
26478;SDS011;14163;-26.142;27.992;2022-10-17T09:40:43;17.80;;;15.77;;
26478;SDS011;14163;-26.142;27.992;2022-10-17T09:43:19;16.63;;;14.50;;
26478;SDS011;14163;-26.142;27.992;2022-10-17T09:45:50;17.40;;;15.43;;
26478;SDS011;14163;-26.142;27.992;2022-10-17T09:48:30;16.70;;;14.67;;
26478;SDS011;14163;-26.142;27.992;2022-10-17T09:51:05;17.97;;;14.37;;
26478;SDS011;14163;-26.142;27.992;2022-10-17T09:53:37;15.70;;;14.13;;
26478;SDS011;14163;-26.142;27.992;2022-10-17T09:56:10;19.67;;;15.53;;
26478;SDS011;14163;-26.142;27.992;2022-10-17T09:58:41;21.27;;;15.53;;
26478;SDS011;14163;-26.142;27.992;2022-10-17T10:01:16;18.60;;;14.30;;
26478;SDS011;14163;-26.142;27.992;2022-10-17T10:04:06;18.07;;;15.27;;
26478;SDS011;14163;-26.142;27.992;2022-10-17T10:06:37;21.23;;;15.97;;
26478;SDS011;14163;-26.142;27.992;2022-10-17T10:09:19;20.30;;;15.73;;
26478;SDS011;14163;-26.142;27.992;2022-10-17T10:11:51;16.57;;;13.80;;
26478;SDS011;14163;-26.142;27.992;2022-10-17T10:14:23;15.80;;;14.13;;
26478;SDS011;14163;-26.142;27.992;2022-10-17T10:16:58;16.30;;;14.70;;
26478;SDS011;14163;-26.142;27.992;2022-10-17T10:19:30;16.73;;;14.27;;
26478;SDS011;14163;-26.142;27.992;2022-10-17T10:22:00;14.47;;;13.07;;
26478;SDS011;14163;-26.142;27.992;2022-10-17T10:24:31;16.83;;;13.77;;
26478;SDS011;14163;-26.142;27.992;2022-10-17T10:27:01;14.87;;;13.27;;
26478;SDS011;14163;-26.142;27.992;2022-10-17T10:29:31;15.80;;;13.37;;
26478;SDS011;14163;-26.142;27.992;2022-10-17T10:32:08;14.70;;;13.20;;
26478;SDS011;14163;-26.142;27.992;2022-10-17T10:34:45;15.40;;;13.73;;
26478;SDS011;14163;-26.142;27.992;2022-10-17T10:37:18;13.93;;;12.53;;
26478;SDS011;14163;-26.142;27.992;2022-10-17T10:39:50;15.83;;;14.13;;
26478;SDS011;14163;-26.142;27.992;2022-10-17T10:42:26;14.80;;;13.47;;
26478;SDS011;14163;-26.142;27.992;2022-10-17T10:44:58;15.70;;;14.10;;
26478;SDS011;14163;-26.142;27.992;2022-10-17T10:47:32;16.30;;;12.93;;
26478;SDS011;14163;-26.142;27.992;2022-10-17T10:50:08;16.30;;;14.13;;
26478;SDS011;14163;-26.142;27.992;2022-10-17T10:52:49;24.50;;;12.43;;
26478;SDS011;14163;-26.142;27.992;2022-10-17T10:55:25;15.33;;;13.27;;
26478;SDS011;14163;-26.142;27.992;2022-10-17T10:57:57;16.80;;;15.07;;
26478;SDS011;14163;-26.142;27.992;2022-10-17T11:00:31;14.23;;;12.93;;
26478;SDS011;14163;-26.142;27.992;2022-10-17T11:03:08;16.00;;;14.20;;
26478;SDS011;14163;-26.142;27.992;2022-10-17T11:05:45;14.10;;;12.70;;
26478;SDS011;14163;-26.142;27.992;2022-10-17T11:08:20;14.67;;;13.13;;
26478;SDS011;14163;-26.142;27.992;2022-10-17T11:11:02;17.00;;;14.20;;
26478;SDS011;14163;-26.142;27.992;2022-10-17T11:13:43;14.93;;;12.60;;
26478;SDS011;14163;-26.142;27.992;2022-10-17T11:16:19;13.77;;;12.37;;
26478;SDS011;14163;-26.142;27.992;2022-10-17T11:18:57;14.10;;;12.80;;
26478;SDS011;14163;-26.142;27.992;2022-10-17T11:21:36;13.87;;;12.47;;
26478;SDS011;14163;-26.142;27.992;2022-10-17T11:24:13;12.70;;;11.47;;
26478;SDS011;14163;-26.142;27.992;2022-10-17T11:26:53;14.27;;;12.90;;
26478;SDS011;14163;-26.142;27.992;2022-10-17T11:29:28;14.07;;;12.30;;
26478;SDS011;14163;-26.142;27.992;2022-10-17T11:32:00;14.03;;;12.23;;
26478;SDS011;14163;-26.142;27.992;2022-10-17T11:34:35;15.90;;;12.37;;
26478;SDS011;14163;-26.142;27.992;2022-10-17T11:37:12;13.80;;;12.23;;
26478;SDS011;14163;-26.142;27.992;2022-10-17T11:39:47;17.20;;;12.30;;
26478;SDS011;14163;-26.142;27.992;2022-10-17T11:42:22;14.13;;;12.63;;
26478;SDS011;14163;-26.142;27.992;2022-10-17T11:44:57;16.70;;;12.50;;
26478;SDS011;14163;-26.142;27.992;2022-10-17T11:47:31;14.67;;;13.23;;
26478;SDS011;14163;-26.142;27.992;2022-10-17T11:50:09;16.70;;;12.40;;
26478;SDS011;14163;-26.142;27.992;2022-10-17T11:52:50;14.60;;;12.27;;
26478;SDS011;14163;-26.142;27.992;2022-10-17T11:55:24;13.13;;;11.70;;
26478;SDS011;14163;-26.142;27.992;2022-10-17T11:57:58;15.93;;;12.70;;
26478;SDS011;14163;-26.142;27.992;2022-10-17T12:00:49;14.40;;;12.00;;
26478;SDS011;14163;-26.142;27.992;2022-10-17T12:06:21;16.07;;;12.80;;
26478;SDS011;14163;-26.142;27.992;2022-10-17T12:09:04;14.67;;;13.37;;
26478;SDS011;14163;-26.142;27.992;2022-10-17T12:11:41;13.83;;;12.40;;
26478;SDS011;14163;-26.142;27.992;2022-10-17T12:14:37;14.70;;;12.73;;
26478;SDS011;14163;-26.142;27.992;2022-10-17T12:17:21;15.13;;;13.53;;
26478;SDS011;14163;-26.142;27.992;2022-10-17T12:23:02;14.57;;;13.07;;
26478;SDS011;14163;-26.142;27.992;2022-10-17T12:25:49;14.97;;;13.30;;
26478;SDS011;14163;-26.142;27.992;2022-10-17T12:28:27;16.97;;;13.47;;
26478;SDS011;14163;-26.142;27.992;2022-10-17T12:30:59;15.17;;;13.60;;
26478;SDS011;14163;-26.142;27.992;2022-10-17T12:33:31;16.40;;;14.70;;
26478;SDS011;14163;-26.142;27.992;2022-10-17T12:42:32;16.57;;;14.50;;
26478;SDS011;14163;-26.142;27.992;2022-10-17T12:51:28;15.57;;;14.13;;
26478;SDS011;14163;-26.142;27.992;2022-10-17T12:54:18;15.73;;;14.03;;
26478;SDS011;14163;-26.142;27.992;2022-10-17T12:56:48;22.23;;;13.30;;
26478;SDS011;14163;-26.142;27.992;2022-10-17T12:59:21;16.23;;;14.60;;
26478;SDS011;14163;-26.142;27.992;2022-10-17T13:01:52;22.90;;;14.77;;
26478;SDS011;14163;-26.142;27.992;2022-10-17T13:04:24;18.00;;;14.30;;
26478;SDS011;14163;-26.142;27.992;2022-10-17T13:06:54;18.37;;;14.07;;
26478;SDS011;14163;-26.142;27.992;2022-10-17T13:09:27;16.40;;;14.17;;
26478;SDS011;14163;-26.142;27.992;2022-10-17T13:11:58;17.77;;;14.30;;
26478;SDS011;14163;-26.142;27.992;2022-10-17T13:14:31;18.63;;;14.43;;
26478;SDS011;14163;-26.142;27.992;2022-10-17T13:17:02;15.90;;;14.33;;
26478;SDS011;14163;-26.142;27.992;2022-10-17T13:19:38;18.23;;;15.30;;
26478;SDS011;14163;-26.142;27.992;2022-10-17T13:22:10;21.53;;;15.97;;
26478;SDS011;14163;-26.142;27.992;2022-10-17T13:24:43;19.87;;;15.87;;
26478;SDS011;14163;-26.142;27.992;2022-10-17T13:27:23;17.10;;;15.23;;
26478;SDS011;14163;-26.142;27.992;2022-10-17T13:29:55;17.93;;;15.97;;
26478;SDS011;14163;-26.142;27.992;2022-10-17T13:32:33;16.97;;;15.33;;
26478;SDS011;14163;-26.142;27.992;2022-10-17T13:35:04;17.43;;;15.47;;
26478;SDS011;14163;-26.142;27.992;2022-10-17T13:37:35;18.23;;;15.00;;
26478;SDS011;14163;-26.142;27.992;2022-10-17T13:40:06;17.97;;;16.20;;
26478;SDS011;14163;-26.142;27.992;2022-10-17T13:42:42;22.40;;;17.60;;
26478;SDS011;14163;-26.142;27.992;2022-10-17T13:45:15;19.80;;;16.00;;
26478;SDS011;14163;-26.142;27.992;2022-10-17T13:47:48;17.73;;;15.87;;
26478;SDS011;14163;-26.142;27.992;2022-10-17T13:50:23;16.60;;;15.00;;
26478;SDS011;14163;-26.142;27.992;2022-10-17T13:53:13;16.90;;;15.10;;
26478;SDS011;14163;-26.142;27.992;2022-10-17T13:55:53;17.83;;;15.97;;
26478;SDS011;14163;-26.142;27.992;2022-10-17T13:58:24;19.63;;;16.40;;
26478;SDS011;14163;-26.142;27.992;2022-10-17T14:00:58;18.10;;;16.40;;
26478;SDS011;14163;-26.142;27.992;2022-10-17T14:03:28;19.67;;;17.57;;
26478;SDS011;14163;-26.142;27.992;2022-10-17T14:06:05;19.40;;;15.90;;
26478;SDS011;14163;-26.142;27.992;2022-10-17T14:08:44;19.53;;;16.53;;
26478;SDS011;14163;-26.142;27.992;2022-10-17T14:11:24;17.77;;;15.93;;
26478;SDS011;14163;-26.142;27.992;2022-10-17T14:13:59;19.67;;;17.53;;
26478;SDS011;14163;-26.142;27.992;2022-10-17T14:16:36;18.33;;;15.73;;
26478;SDS011;14163;-26.142;27.992;2022-10-17T14:19:13;19.40;;;17.33;;
26478;SDS011;14163;-26.142;27.992;2022-10-17T14:21:51;18.23;;;16.27;;
26478;SDS011;14163;-26.142;27.992;2022-10-17T14:24:28;20.33;;;18.07;;
26478;SDS011;14163;-26.142;27.992;2022-10-17T14:26:58;19.00;;;17.13;;
26478;SDS011;14163;-26.142;27.992;2022-10-17T14:29:27;20.50;;;17.77;;
26478;SDS011;14163;-26.142;27.992;2022-10-17T14:32:01;19.23;;;17.23;;
26478;SDS011;14163;-26.142;27.992;2022-10-17T14:34:33;20.50;;;18.40;;
26478;SDS011;14163;-26.142;27.992;2022-10-17T14:37:08;18.57;;;16.77;;
26478;SDS011;14163;-26.142;27.992;2022-10-17T14:39:38;20.13;;;18.20;;
26478;SDS011;14163;-26.142;27.992;2022-10-17T14:42:15;22.37;;;17.50;;
26478;SDS011;14163;-26.142;27.992;2022-10-17T14:44:47;33.97;;;18.37;;
26478;SDS011;14163;-26.142;27.992;2022-10-17T14:47:23;19.90;;;17.67;;
26478;SDS011;14163;-26.142;27.992;2022-10-17T15:00:12;25.50;;;18.93;;
26478;SDS011;14163;-26.142;27.992;2022-10-17T15:02:44;25.97;;;18.40;;
26478;SDS011;14163;-26.142;27.992;2022-10-17T15:05:15;25.67;;;19.30;;
26478;SDS011;14163;-26.142;27.992;2022-10-17T15:07:47;19.30;;;17.10;;
26478;SDS011;14163;-26.142;27.992;2022-10-17T15:10:23;40.10;;;19.37;;
26478;SDS011;14163;-26.142;27.992;2022-10-17T15:12:54;17.90;;;16.13;;
26478;SDS011;14163;-26.142;27.992;2022-10-17T15:15:24;19.27;;;17.27;;
26478;SDS011;14163;-26.142;27.992;2022-10-17T15:17:56;20.30;;;18.20;;
26478;SDS011;14163;-26.142;27.992;2022-10-17T15:20:28;21.33;;;17.17;;